Time;durP1;ratioP1;P1;durP2;ratioP2;P2;SDS_P1;SDS_P2;PMS_P1;PMS_P2;Temp;Humidity;BMP_temperature;BMP_pressure;BME280_temperature;BME280_humidity;BME280_pressure;Samples;Min_cycle;Max_cycle;Signal;HPM_P1;HPM_P2
2022/07/24 00:00:16;;;;;;;8.07;3.27;;;17.10;99.90;;;;;;5095517;28;20056;-73
2022/07/24 00:02:42;;;;;;;8.90;3.50;;;17.00;99.90;;;;;;5096451;28;20056;-73
2022/07/24 00:05:08;;;;;;;8.17;3.50;;;17.00;99.90;;;;;;5095617;28;20376;-73
2022/07/24 00:07:35;;;;;;;7.20;3.63;;;16.90;99.90;;;;;;5095545;28;20040;-73
2022/07/24 00:10:02;;;;;;;5.50;3.40;;;17.00;99.90;;;;;;5095506;28;20387;-73
2022/07/24 00:12:28;;;;;;;7.77;3.67;;;17.00;99.90;;;;;;5095969;28;20062;-73
2022/07/24 00:14:54;;;;;;;6.00;3.80;;;17.00;99.90;;;;;;5095128;28;20044;-73
2022/07/24 00:17:19;;;;;;;6.70;3.90;;;17.00;99.90;;;;;;5095333;28;20122;-73
2022/07/24 00:19:45;;;;;;;7.23;4.10;;;17.00;99.90;;;;;;5094304;28;20044;-73
2022/07/24 00:22:11;;;;;;;5.30;3.43;;;16.90;99.90;;;;;;5095755;28;20055;-73
2022/07/24 00:24:37;;;;;;;7.00;3.30;;;16.90;99.90;;;;;;5095979;28;20039;-72
2022/07/24 00:27:02;;;;;;;8.33;3.87;;;16.90;99.90;;;;;;5094182;28;20044;-72
2022/07/24 00:29:28;;;;;;;6.73;3.83;;;16.90;99.90;;;;;;5093863;28;20052;-72
2022/07/24 00:31:54;;;;;;;6.93;3.53;;;16.80;99.90;;;;;;5095502;28;20048;-72
2022/07/24 00:34:20;;;;;;;5.73;3.53;;;16.80;99.90;;;;;;5094721;28;20050;-73
2022/07/24 00:36:46;;;;;;;7.03;4.10;;;16.70;99.90;;;;;;5095006;28;20084;-73
2022/07/24 00:39:12;;;;;;;5.23;3.63;;;16.80;99.90;;;;;;5094925;28;20066;-72
2022/07/24 00:41:38;;;;;;;9.60;3.87;;;16.80;99.90;;;;;;5094784;28;20093;-73
2022/07/24 00:44:08;;;;;;;7.63;4.60;;;16.80;99.90;;;;;;5094839;28;20052;-72
2022/07/24 00:46:35;;;;;;;7.87;4.23;;;16.80;99.90;;;;;;5094857;28;20060;-73
2022/07/24 00:49:06;;;;;;;7.60;4.50;;;16.70;99.90;;;;;;5094748;28;20044;-72
2022/07/24 00:51:33;;;;;;;6.60;4.63;;;16.70;99.90;;;;;;5095155;28;20097;-73
2022/07/24 00:53:59;;;;;;;5.90;3.90;;;16.60;99.90;;;;;;5095139;28;20052;-73
2022/07/24 00:56:25;;;;;;;8.33;4.53;;;16.60;99.90;;;;;;5094552;28;20048;-72
2022/07/24 00:58:51;;;;;;;6.27;4.50;;;16.60;99.90;;;;;;5094525;28;20123;-73
2022/07/24 01:01:18;;;;;;;8.13;4.73;;;16.60;99.90;;;;;;5094526;28;20040;-73
2022/07/24 01:03:44;;;;;;;7.77;4.33;;;16.60;99.90;;;;;;5094441;28;20110;-73
2022/07/24 01:06:10;;;;;;;5.13;4.07;;;16.60;99.90;;;;;;5094453;28;20424;-73
2022/07/24 01:08:37;;;;;;;10.57;4.90;;;16.60;99.90;;;;;;5094279;28;20079;-73
2022/07/24 01:11:04;;;;;;;8.93;4.93;;;16.60;99.90;;;;;;5094240;28;20047;-73
2022/07/24 01:13:30;;;;;;;6.90;4.90;;;16.60;99.90;;;;;;5095031;28;20097;-73
2022/07/24 01:15:57;;;;;;;7.43;4.50;;;16.60;99.90;;;;;;5076205;28;20310;-73
2022/07/24 01:18:23;;;;;;;6.73;4.93;;;16.70;99.90;;;;;;5094192;28;20274;-73
2022/07/24 01:20:50;;;;;;;7.87;4.87;;;16.70;99.90;;;;;;5093428;28;20369;-73
2022/07/24 01:23:16;;;;;;;6.10;5.00;;;16.70;99.90;;;;;;5094159;28;20036;-73
2022/07/24 01:25:41;;;;;;;7.50;4.43;;;16.70;99.90;;;;;;5094311;28;20440;-73
2022/07/24 01:28:07;;;;;;;8.03;5.50;;;16.70;99.90;;;;;;5094069;28;20048;-73
2022/07/24 01:30:33;;;;;;;6.67;4.67;;;16.70;99.90;;;;;;5093904;28;20039;-73
2022/07/24 01:32:59;;;;;;;6.73;5.60;;;16.60;99.90;;;;;;5093946;28;20090;-73
2022/07/24 01:35:25;;;;;;;8.63;5.50;;;16.60;99.90;;;;;;5093932;28;20052;-73
2022/07/24 01:37:52;;;;;;;11.17;5.53;;;16.60;99.90;;;;;;5093904;28;20040;-73
2022/07/24 01:40:17;;;;;;;7.33;5.33;;;16.60;99.90;;;;;;5093865;28;20128;-73
2022/07/24 01:42:43;;;;;;;6.97;5.13;;;16.60;99.90;;;;;;5093579;28;20476;-72
2022/07/24 01:45:09;;;;;;;8.00;4.70;;;16.60;99.90;;;;;;5093535;28;20047;-72
2022/07/24 01:47:35;;;;;;;6.63;5.53;;;16.60;99.90;;;;;;5076746;28;20098;-72
2022/07/24 01:50:01;;;;;;;6.97;5.17;;;16.70;99.90;;;;;;5093320;28;20399;-72
2022/07/24 01:52:26;;;;;;;9.10;5.67;;;16.70;99.90;;;;;;5093697;28;20051;-72
2022/07/24 01:54:53;;;;;;;9.17;5.93;;;16.70;99.90;;;;;;5093644;28;20044;-73
2022/07/24 01:57:19;;;;;;;8.50;6.00;;;16.70;99.90;;;;;;5093642;28;20048;-72
2022/07/24 01:59:45;;;;;;;6.90;5.77;;;16.60;99.90;;;;;;5093616;28;20113;-73
2022/07/24 02:02:10;;;;;;;6.37;5.77;;;16.60;99.90;;;;;;5093585;28;20121;-73
2022/07/24 02:04:36;;;;;;;6.90;5.20;;;16.60;99.90;;;;;;5093544;28;20047;-73
2022/07/24 02:07:02;;;;;;;6.50;5.07;;;16.70;99.90;;;;;;5094070;28;20051;-73
2022/07/24 02:09:27;;;;;;;6.93;5.70;;;16.70;99.90;;;;;;5093498;28;20055;-73
2022/07/24 02:11:53;;;;;;;8.77;5.67;;;16.70;99.90;;;;;;5093928;28;20048;-73
2022/07/24 02:14:19;;;;;;;8.27;6.27;;;16.70;99.90;;;;;;5093976;28;20047;-72
2022/07/24 02:16:45;;;;;;;7.40;6.20;;;16.60;99.90;;;;;;5093409;28;20176;-73
2022/07/24 02:19:11;;;;;;;7.60;5.80;;;16.60;99.90;;;;;;5092179;28;20051;-73
2022/07/24 02:21:37;;;;;;;8.97;6.30;;;16.60;99.90;;;;;;5093323;28;20123;-72
2022/07/24 02:24:03;;;;;;;10.37;6.77;;;16.60;99.90;;;;;;5093360;28;20140;-72
2022/07/24 02:26:28;;;;;;;9.17;7.27;;;16.60;99.90;;;;;;5093624;28;20097;-73
2022/07/24 02:28:54;;;;;;;9.50;6.90;;;16.50;99.90;;;;;;5092586;28;20036;-73
2022/07/24 02:31:20;;;;;;;11.50;8.80;;;16.60;99.90;;;;;;5093243;28;20063;-73
2022/07/24 02:33:46;;;;;;;13.07;9.20;;;16.60;99.90;;;;;;5092872;28;20153;-72
2022/07/24 02:36:12;;;;;;;9.73;8.40;;;16.50;99.90;;;;;;5093782;28;20044;-73
2022/07/24 02:38:37;;;;;;;10.13;7.27;;;16.50;99.90;;;;;;5092881;28;20055;-73
2022/07/24 02:41:03;;;;;;;9.30;7.47;;;16.50;99.90;;;;;;5093254;28;20083;-73
2022/07/24 02:43:29;;;;;;;8.70;6.23;;;16.50;99.90;;;;;;5093199;28;20060;-72
2022/07/24 02:45:55;;;;;;;8.13;6.97;;;16.40;99.90;;;;;;5092742;28;20170;-72
2022/07/24 02:48:21;;;;;;;9.13;6.97;;;16.40;99.90;;;;;;5093195;28;20063;-72
2022/07/24 02:50:46;;;;;;;8.67;6.47;;;16.40;99.90;;;;;;5093538;28;20052;-73
2022/07/24 02:53:12;;;;;;;7.03;6.23;;;16.40;99.90;;;;;;5094843;28;20051;-72
2022/07/24 02:55:38;;;;;;;8.83;6.97;;;16.40;99.90;;;;;;5097145;28;20051;-73
2022/07/24 02:58:03;;;;;;;9.33;7.27;;;16.30;99.90;;;;;;5096886;28;20108;-72
2022/07/24 03:00:29;;;;;;;8.30;6.53;;;16.30;99.90;;;;;;5096875;28;20044;-72
2022/07/24 03:02:55;;;;;;;8.93;6.50;;;16.30;99.90;;;;;;5097482;28;20044;-73
2022/07/24 03:05:21;;;;;;;9.20;7.40;;;16.40;99.90;;;;;;5096060;28;20048;-72
2022/07/24 03:07:47;;;;;;;7.47;6.60;;;16.40;99.90;;;;;;5096658;28;20050;-72
2022/07/24 03:10:13;;;;;;;9.03;6.40;;;16.40;99.90;;;;;;5096673;28;20052;-73
2022/07/24 03:12:40;;;;;;;7.73;6.30;;;16.50;99.90;;;;;;5096576;28;20484;-74
2022/07/24 03:15:06;;;;;;;8.47;6.50;;;16.50;99.90;;;;;;5096618;28;20040;-72
2022/07/24 03:17:32;;;;;;;8.17;6.73;;;16.50;99.90;;;;;;5095560;28;20059;-72
2022/07/24 03:19:58;;;;;;;8.30;6.90;;;16.50;99.90;;;;;;5096706;28;20048;-72
2022/07/24 03:22:23;;;;;;;7.87;6.17;;;16.50;99.90;;;;;;5096998;28;20052;-72
2022/07/24 03:24:49;;;;;;;9.77;6.73;;;16.50;99.90;;;;;;5096853;28;20093;-73
2022/07/24 03:27:15;;;;;;;9.80;7.10;;;16.50;99.90;;;;;;5095235;28;20121;-73
2022/07/24 03:29:40;;;;;;;8.60;6.57;;;16.50;99.90;;;;;;5096253;28;20048;-74
2022/07/24 03:32:06;;;;;;;9.17;7.10;;;16.50;99.90;;;;;;5112325;27;20040;-72
2022/07/24 03:34:32;;;;;;;7.37;6.57;;;16.50;99.90;;;;;;5095890;28;20392;-72
2022/07/24 03:36:58;;;;;;;7.87;6.80;;;16.50;99.90;;;;;;5095815;28;20051;-72
2022/07/24 03:39:24;;;;;;;9.30;6.93;;;16.50;99.90;;;;;;5096073;28;20044;-72
2022/07/24 03:41:49;;;;;;;9.70;7.60;;;16.50;99.90;;;;;;5096089;28;20078;-73
2022/07/24 03:44:15;;;;;;;10.10;7.13;;;16.50;99.90;;;;;;5096075;28;20047;-73
2022/07/24 03:46:41;;;;;;;10.33;7.37;;;16.60;99.90;;;;;;5094802;28;20102;-72
2022/07/24 03:49:06;;;;;;;8.07;6.47;;;16.60;99.90;;;;;;5095894;28;20047;-73
2022/07/24 03:51:34;;;;;;;11.57;7.80;;;16.60;99.90;;;;;;5094322;28;20044;-72
2022/07/24 03:54:00;;;;;;;9.67;7.40;;;16.60;99.90;;;;;;5096343;28;20127;-73
2022/07/24 03:56:26;;;;;;;11.80;7.67;;;16.50;99.90;;;;;;5095797;28;20051;-72
2022/07/24 03:58:53;;;;;;;11.80;6.93;;;16.60;99.90;;;;;;5095858;28;20128;-72
2022/07/24 04:01:19;;;;;;;9.43;7.43;;;16.60;99.90;;;;;;5095724;28;20126;-72
2022/07/24 04:03:44;;;;;;;9.37;7.87;;;16.60;99.90;;;;;;5094499;28;20556;-73
2022/07/24 04:06:10;;;;;;;8.60;7.63;;;16.60;99.90;;;;;;5095595;28;20052;-73
2022/07/24 04:08:36;;;;;;;10.53;7.30;;;16.60;99.90;;;;;;5095862;28;20379;-72
2022/07/24 04:11:01;;;;;;;9.30;7.67;;;16.60;99.90;;;;;;5095958;28;20100;-73
2022/07/24 04:13:29;;;;;;;8.50;7.30;;;16.60;99.90;;;;;;5095468;28;20086;-72
2022/07/24 04:15:56;;;;;;;10.73;7.20;;;16.60;99.90;;;;;;5095364;28;20044;-72
2022/07/24 04:18:22;;;;;;;11.60;7.70;;;16.60;99.90;;;;;;5095293;28;20059;-72
2022/07/24 04:20:48;;;;;;;9.47;7.87;;;16.60;99.90;;;;;;5095264;28;20044;-72
2022/07/24 04:23:14;;;;;;;8.23;7.33;;;16.50;99.90;;;;;;5095281;28;20225;-73
2022/07/24 04:25:39;;;;;;;8.60;7.37;;;16.60;99.90;;;;;;5094739;28;20076;-72
2022/07/24 04:28:05;;;;;;;9.13;7.23;;;16.60;99.90;;;;;;5096230;28;20051;-72
2022/07/24 04:30:31;;;;;;;8.77;6.97;;;16.60;99.90;;;;;;5095080;28;20127;-72
2022/07/24 04:32:57;;;;;;;10.23;7.83;;;16.60;99.90;;;;;;5095377;28;20482;-72
2022/07/24 04:35:24;;;;;;;9.97;8.17;;;16.60;99.90;;;;;;5093819;28;20040;-72
2022/07/24 04:37:50;;;;;;;8.47;7.23;;;16.60;99.90;;;;;;5094951;28;20471;-73
2022/07/24 04:40:15;;;;;;;11.50;7.63;;;16.70;99.90;;;;;;5094872;28;20506;-72
2022/07/24 04:42:41;;;;;;;10.07;7.57;;;16.70;99.90;;;;;;5093991;28;20048;-72
2022/07/24 04:45:11;;;;;;;10.73;7.97;;;16.70;99.90;;;;;;5094591;28;20154;-72
2022/07/24 04:47:37;;;;;;;9.63;7.57;;;16.70;99.90;;;;;;5094842;28;20113;-72
2022/07/24 04:50:05;;;;;;;9.37;7.97;;;16.80;99.90;;;;;;5094645;28;20040;-72
2022/07/24 04:52:31;;;;;;;12.43;8.43;;;16.80;99.90;;;;;;5094675;28;20048;-72
2022/07/24 04:54:56;;;;;;;10.70;7.57;;;16.90;99.90;;;;;;5095171;28;20048;-72
2022/07/24 04:57:22;;;;;;;10.37;7.60;;;16.90;99.90;;;;;;5095408;28;20465;-72
2022/07/24 04:59:48;;;;;;;9.87;8.00;;;16.90;99.90;;;;;;5094557;28;20117;-72
2022/07/24 05:02:14;;;;;;;9.50;8.50;;;17.00;99.90;;;;;;5094984;28;20051;-72
2022/07/24 05:04:40;;;;;;;11.57;8.00;;;17.00;99.90;;;;;;5094291;28;20055;-72
2022/07/24 05:07:05;;;;;;;10.83;8.83;;;17.10;99.90;;;;;;5094346;28;20051;-72
2022/07/24 05:09:31;;;;;;;10.00;8.33;;;17.20;99.90;;;;;;5094246;28;20044;-72
2022/07/24 05:11:57;;;;;;;11.93;8.70;;;17.30;99.90;;;;;;5094257;28;20040;-72
2022/07/24 05:14:22;;;;;;;12.47;8.60;;;17.40;99.90;;;;;;5095324;28;20447;-73
2022/07/24 05:16:48;;;;;;;8.97;8.03;;;17.50;99.90;;;;;;5094220;28;20071;-72
2022/07/24 05:19:14;;;;;;;11.57;8.60;;;17.60;99.90;;;;;;5093868;28;20134;-72
2022/07/24 05:21:40;;;;;;;10.33;8.13;;;17.60;99.90;;;;;;5094182;28;20040;-72
2022/07/24 05:24:06;;;;;;;10.53;8.43;;;17.60;99.90;;;;;;5094043;28;20052;-72
2022/07/24 05:26:32;;;;;;;9.30;8.30;;;17.80;99.90;;;;;;5094061;28;20054;-72
2022/07/24 05:29:03;;;;;;;10.10;8.40;;;17.80;99.90;;;;;;5093719;28;20495;-73
2022/07/24 05:31:29;;;;;;;10.73;8.83;;;18.00;99.90;;;;;;5094409;28;20399;-72
2022/07/24 05:33:55;;;;;;;10.90;8.97;;;18.10;99.90;;;;;;5094442;28;20044;-73
2022/07/24 05:36:21;;;;;;;12.13;9.00;;;18.20;99.90;;;;;;5093936;28;20127;-72
2022/07/24 05:38:47;;;;;;;12.00;9.53;;;18.30;99.90;;;;;;5094252;28;20044;-72
2022/07/24 05:41:13;;;;;;;9.67;7.67;;;18.40;99.90;;;;;;5092619;28;20039;-72
2022/07/24 05:43:39;;;;;;;12.03;8.83;;;18.60;99.90;;;;;;5093836;28;20044;-72
2022/07/24 05:46:05;;;;;;;12.70;8.97;;;18.80;99.90;;;;;;5093564;28;20055;-73
2022/07/24 05:48:31;;;;;;;10.20;8.87;;;18.90;99.90;;;;;;5093435;28;20499;-72
2022/07/24 05:50:57;;;;;;;12.37;9.50;;;19.00;99.90;;;;;;5093344;28;20384;-73
2022/07/24 05:53:23;;;;;;;10.60;8.87;;;19.20;99.90;;;;;;5093703;28;20544;-73
2022/07/24 05:55:50;;;;;;;11.37;9.17;;;19.50;99.90;;;;;;5093599;28;20134;-73
2022/07/24 05:58:16;;;;;;;13.83;9.40;;;20.10;99.90;;;;;;5092885;28;20043;-73
2022/07/24 06:00:42;;;;;;;12.67;9.00;;;21.30;99.90;;;;;;5093926;28;20047;-73
2022/07/24 06:03:08;;;;;;;11.20;8.53;;;23.40;99.90;;;;;;5093543;28;20597;-73
2022/07/24 06:05:34;;;;;;;11.57;8.77;;;24.10;99.90;;;;;;5093533;28;20051;-73
2022/07/24 06:08:00;;;;;;;11.43;9.00;;;24.30;99.90;;;;;;5093498;28;20047;-73
2022/07/24 06:10:26;;;;;;;10.90;9.80;;;25.60;99.90;;;;;;5093434;28;20051;-73
2022/07/24 06:12:52;;;;;;;9.73;8.60;;;25.80;99.90;;;;;;5093138;28;20548;-73
2022/07/24 06:15:17;;;;;;;11.47;9.10;;;26.40;97.60;;;;;;5093448;28;20047;-73
2022/07/24 06:17:44;;;;;;;10.60;9.50;;;27.20;91.00;;;;;;5093870;28;20048;-73
2022/07/24 06:20:12;;;;;;;10.17;9.17;;;27.30;79.20;;;;;;5094128;28;20097;-73
2022/07/24 06:22:39;;;;;;;12.67;9.33;;;;;;;;;;5093423;28;20044;-73
2022/07/24 06:25:05;;;;;;;10.70;9.60;;;;;;;;;;5092127;28;20070;-73
2022/07/24 06:27:31;;;;;;;13.63;10.03;;;;;;;;;;5095053;28;20040;-73
2022/07/24 06:29:57;;;;;;;10.40;8.63;;;;;;;;;;5097880;28;20044;-73
2022/07/24 06:32:24;;;;;;;12.30;9.40;;;;;;;;;;5097392;28;20135;-73
2022/07/24 06:34:50;;;;;;;10.70;9.03;;;;;;;;;;5097391;28;20050;-73
2022/07/24 06:37:16;;;;;;;11.23;10.00;;;;;;;;;;5097230;28;20182;-73
2022/07/24 06:39:42;;;;;;;10.25;9.25;;;;;;;;;;5097272;28;20051;-72
2022/07/24 06:42:08;;;;;;;10.52;8.85;;;;;;;;;;5097908;28;20048;-73
2022/07/24 06:44:36;;;;;;;11.95;10.48;;;;;;;;;;5097252;28;20131;-72
2022/07/24 06:47:02;;;;;;;13.30;10.38;;;;;;;;;;5078880;28;20105;-73
2022/07/24 06:49:28;;;;;;;12.85;10.23;;;;;;;;;;5097343;28;20090;-73
2022/07/24 06:51:54;;;;;;;11.93;10.73;;;;;;;;;;5096569;28;20040;-72
2022/07/24 06:54:20;;;;;;;13.00;10.68;;;;;;;;;;5097205;28;20130;-72
2022/07/24 06:56:46;;;;;;;12.27;10.52;;;;;;;;;;5096938;28;20044;-74
2022/07/24 06:59:12;;;;;;;12.73;10.00;;;;;;;;;;5096869;28;20101;-75
2022/07/24 07:01:38;;;;;;;11.55;10.35;;;;;;;;;;5096890;28;20044;-73
2022/07/24 07:04:05;;;;;;;12.00;10.80;;;;;;;;;;5095922;28;20044;-74
2022/07/24 07:06:31;;;;;;;12.50;10.52;;;;;;;;;;5097197;28;20498;-73
2022/07/24 07:08:57;;;;;;;17.17;10.88;;;;;;;;;;5096733;28;20373;-73
2022/07/24 07:11:23;;;;;;;11.50;10.30;;;;;;;;;;5079270;28;20079;-70
2022/07/24 07:13:49;;;;;;;13.20;11.15;;;;;;;;;;5095650;28;20142;-69
2022/07/24 07:16:15;;;;;;;11.27;9.88;;;;;;;;;;5096822;28;20040;-71
2022/07/24 07:18:42;;;;;;;13.85;10.05;;;;;;;;;;5096466;28;20540;-71
2022/07/24 07:21:07;;;;;;;10.50;9.23;;;25.90;65.40;;;;;;5098529;28;20041;-72
2022/07/24 07:23:33;;;;;;;10.88;9.63;;;25.90;66.00;;;;;;5099279;28;20052;-70
2022/07/24 07:25:59;;;;;;;13.97;10.07;;;25.60;70.10;;;;;;5096425;28;20116;-71
2022/07/24 07:28:24;;;;;;;11.77;9.30;;;25.40;73.00;;;;;;5096657;28;20044;-72
2022/07/24 07:30:50;;;;;;;10.83;8.50;;;25.20;78.00;;;;;;5095951;28;20048;-71
2022/07/24 07:33:16;;;;;;;10.43;8.63;;;25.20;80.20;;;;;;5095481;28;20090;-72
2022/07/24 07:35:42;;;;;;;9.97;8.97;;;25.10;83.90;;;;;;5096289;28;20089;-71
2022/07/24 07:38:07;;;;;;;15.53;8.70;;;25.00;83.80;;;;;;5095425;28;20105;-71
2022/07/24 07:40:33;;;;;;;11.67;9.13;;;24.90;87.00;;;;;;5095252;28;20071;-72
2022/07/24 07:42:59;;;;;;;11.37;8.67;;;24.80;90.00;;;;;;5094918;28;20062;-71
2022/07/24 07:45:24;;;;;;;11.53;8.53;;;24.80;90.00;;;;;;5096330;28;20091;-71
2022/07/24 07:47:50;;;;;;;9.93;7.67;;;24.60;90.50;;;;;;5096609;28;20055;-70
2022/07/24 07:50:16;;;;;;;10.73;8.50;;;24.60;92.00;;;;;;5095704;28;20383;-71
2022/07/24 07:52:43;;;;;;;10.93;8.87;;;24.60;92.90;;;;;;5095944;28;20041;-71
2022/07/24 07:55:09;;;;;;;12.47;7.90;;;24.70;93.60;;;;;;5094888;28;20058;-71
2022/07/24 07:57:35;;;;;;;12.47;7.40;;;24.80;93.60;;;;;;5094827;28;20055;-71
2022/07/24 08:00:01;;;;;;;12.17;7.90;;;24.80;93.90;;;;;;5095943;28;20063;-72
2022/07/24 08:02:26;;;;;;;10.13;7.40;;;24.80;94.10;;;;;;5095913;28;20040;-72
2022/07/24 08:04:52;;;;;;;11.50;7.60;;;24.80;94.60;;;;;;5095689;28;20373;-74
2022/07/24 08:07:18;;;;;;;10.17;6.30;;;25.50;94.80;;;;;;5095879;28;20047;-73
2022/07/24 08:09:44;;;;;;;7.37;5.43;;;26.90;92.80;;;;;;5095815;28;20384;-73
2022/07/24 08:12:10;;;;;;;7.20;5.30;;;27.80;83.30;;;;;;5095361;28;20040;-76
2022/07/24 08:14:36;;;;;;;9.87;5.23;;;27.90;75.10;;;;;;5095464;28;20051;-71
2022/07/24 08:17:03;;;;;;;7.83;5.30;;;27.70;73.90;;;;;;5077589;28;20479;-74
2022/07/24 08:19:28;;;;;;;8.63;5.30;;;27.50;72.90;;;;;;5095903;28;20051;-70
2022/07/24 08:21:54;;;;;;;8.60;5.20;;;27.20;72.70;;;;;;5096133;28;20123;-70
2022/07/24 08:24:23;;;;;;;7.87;4.93;;;27.10;74.20;;;;;;5095785;28;20052;-71
2022/07/24 08:26:49;;;;;;;9.97;5.03;;;27.20;74.40;;;;;;5095489;28;20126;-74
2022/07/24 08:29:15;;;;;;;8.83;4.63;;;29.00;67.60;;;;;;5093872;28;20048;-70
2022/07/24 08:31:41;;;;;;;8.87;4.90;;;29.80;63.60;;;;;;5095000;28;20114;-71
2022/07/24 08:34:07;;;;;;;7.30;4.97;;;30.20;64.00;;;;;;5094591;28;20056;-76
2022/07/24 08:36:33;;;;;;;7.82;4.88;;;;;;;;;;5094332;28;20046;-70
2022/07/24 08:38:59;;;;;;;7.40;4.75;;;;;;;;;;5094944;28;20140;-69
2022/07/24 08:41:26;;;;;;;7.35;4.30;;;;;;;;;;5094905;28;20047;-69
2022/07/24 08:43:52;;;;;;;6.47;4.13;;;;;;;;;;5094918;28;20083;-72
2022/07/24 08:46:19;;;;;;;8.57;4.13;;;;;;;;;;5094776;28;20094;-82
2022/07/24 08:48:45;;;;;;;7.50;4.13;;;;;;;;;;5094804;28;20083;-73
2022/07/24 08:51:15;;;;;;;8.40;4.13;;;;;;;;;;5094010;28;20185;-72
2022/07/24 08:53:41;;;;;;;6.45;3.70;;;;;;;;;;5094616;28;20067;-79
2022/07/24 08:56:07;;;;;;;8.23;3.97;;;;;;;;;;5094709;28;20054;-71
2022/07/24 08:58:41;;;;;;;5.50;3.55;;;;;;;;;;5094539;28;20123;-70
2022/07/24 09:01:07;;;;;;;6.07;3.70;;;;;;;;;;5094579;28;20087;-70
2022/07/24 09:03:41;;;;;;;7.82;3.65;;;;;;;;;;5093440;28;20097;-71
2022/07/24 09:06:09;;;;;;;6.22;3.45;;;;;;;;;;5093521;28;20389;-75
2022/07/24 09:08:35;;;;;;;7.07;3.53;;;;;;;;;;5094395;28;20044;-74
2022/07/24 09:11:03;;;;;;;8.10;3.60;;;;;;;;;;5094251;28;20044;-75
2022/07/24 09:14:29;;;;;;;9.80;3.50;;;;;;;;;;5094277;28;20453;-71
2022/07/24 09:16:24;;;;;;;9.17;3.60;;;;;;;;;;5094955;28;20059;-71
2022/07/24 09:19:04;;;;;;;6.75;3.45;;;;;;;;;;5094098;28;20056;-70
2022/07/24 09:21:33;;;;;;;7.70;4.07;;;;;;;;;;5094166;28;20098;-73
2022/07/24 09:24:02;;;;;;;6.00;3.43;;;;;;;;;;5094252;28;20048;-71
2022/07/24 09:26:47;;;;;;;5.37;3.00;;;;;;;;;;5093153;28;20478;-73
2022/07/24 09:29:14;;;;;;;8.33;3.17;;;;;;;;;;5094110;28;20394;-71
2022/07/24 09:31:55;;;;;;;9.02;3.50;;;;;;;;;;5092730;28;20044;-72
2022/07/24 09:34:21;;;;;;;6.30;3.40;;;;;;;;;;5093996;28;20048;-71
2022/07/24 09:36:58;;;;;;;5.10;3.00;;;;;;;;;;5093925;28;20126;-67
2022/07/24 09:39:25;;;;;;;5.37;3.23;;;;;;;;;;5094476;28;20044;-71
2022/07/24 09:41:55;;;;;;;5.37;3.17;;;;;;;;;;5093868;28;20058;-71
2022/07/24 09:44:23;;;;;;;5.93;3.27;;;;;;;;;;5093828;28;20083;-70
2022/07/24 09:47:04;;;;;;;6.40;3.37;;;27.50;66.90;;;;;;5093821;28;20160;-71
2022/07/24 09:49:30;;;;;;;5.63;3.33;;;27.50;67.30;;;;;;5093790;28;20495;-73
2022/07/24 09:52:05;;;;;;;5.83;3.00;;;27.40;67.30;;;;;;5093655;28;20036;-73
2022/07/24 09:54:38;;;;;;;5.43;2.93;;;27.30;68.90;;;;;;5093970;28;20044;-70
2022/07/24 09:57:17;;;;;;;6.83;3.00;;;;;;;;;;5093904;28;20047;-72
2022/07/24 09:59:47;;;;;;;5.27;2.83;;;27.20;67.70;;;;;;5094152;28;20040;-73
2022/07/24 10:02:15;;;;;;;5.83;3.17;;;27.10;68.70;;;;;;5091304;28;20487;-73
2022/07/24 10:04:42;;;;;;;6.60;3.07;;;26.90;69.80;;;;;;5092824;28;20048;-72
2022/07/24 10:07:13;;;;;;;7.73;3.33;;;26.90;70.50;;;;;;5093300;28;20045;-71
2022/07/24 10:09:43;;;;;;;8.37;3.20;;;26.90;71.10;;;;;;5093254;28;20491;-71
2022/07/24 10:12:17;;;;;;;5.40;2.93;;;26.80;72.10;;;;;;5093173;28;20044;-72
2022/07/24 10:14:44;;;;;;;5.43;3.00;;;26.80;72.80;;;;;;5093781;28;20079;-76
2022/07/24 10:17:12;;;;;;;6.53;2.97;;;26.80;73.30;;;;;;5093210;28;20055;-72
2022/07/24 10:19:39;;;;;;;7.07;3.30;;;26.80;72.60;;;;;;5093144;28;20044;-72
2022/07/24 10:22:11;;;;;;;5.40;2.83;;;26.80;72.20;;;;;;5093669;28;20123;-71
2022/07/24 10:24:54;;;;;;;4.50;2.80;;;26.90;73.30;;;;;;5093192;28;20048;-72
2022/07/24 10:27:39;;;;;;;7.73;3.17;;;26.90;73.10;;;;;;5093697;28;20150;-71
2022/07/24 10:30:10;;;;;;;4.40;2.53;;;26.90;71.80;;;;;;5092402;28;20048;-74
2022/07/24 10:32:37;;;;;;;8.53;3.00;;;27.10;73.10;;;;;;5058731;28;20052;-77
2022/07/24 10:35:15;;;;;;;5.90;2.40;;;27.20;71.10;;;;;;5091821;28;20539;-75
2022/07/24 10:38:16;;;;;;;6.63;2.60;;;27.20;72.40;;;;;;5092986;28;20109;-75
2022/07/24 10:40:49;;;;;;;7.57;2.73;;;27.30;72.30;;;;;;5093774;28;20120;-72
2022/07/24 10:43:17;;;;;;;6.60;2.60;;;27.30;71.60;;;;;;5092037;28;20093;-71
2022/07/24 10:45:58;;;;;;;4.97;2.57;;;27.20;70.70;;;;;;5092846;28;20052;-71
2022/07/24 10:48:25;;;;;;;7.47;2.50;;;27.10;71.40;;;;;;5093193;28;20040;-70
2022/07/24 10:51:08;;;;;;;6.67;2.60;;;27.00;71.50;;;;;;5092281;28;20109;-70
2022/07/24 10:53:36;;;;;;;4.23;2.70;;;27.00;71.30;;;;;;5093679;28;20048;-72
2022/07/24 10:56:18;;;;;;;6.83;2.80;;;26.90;71.70;;;;;;5093116;28;20519;-70
2022/07/24 10:58:59;;;;;;;4.80;3.30;;;26.70;71.50;;;;;;5093309;28;20158;-71
2022/07/24 11:01:44;;;;;;;4.80;2.67;;;26.60;72.40;;;;;;5093118;28;20082;-71
2022/07/24 11:04:19;;;;;;;;;;;26.50;73.90;;;;;;5093515;28;20044;-71
2022/07/24 11:07:09;;;;;;;5.30;3.00;;;26.40;73.80;;;;;;5093021;28;19920;-71
2022/07/24 11:09:56;;;;;;;6.47;2.87;;;26.40;73.70;;;;;;5092416;28;20056;-71
2022/07/24 11:12:32;;;;;;;5.20;2.73;;;26.50;73.10;;;;;;5093524;28;20047;-71
2022/07/24 11:17:47;;;;;;;5.83;2.97;;;26.50;73.40;;;;;;5097512;28;20157;-71
2022/07/24 11:20:18;;;;;;;6.07;2.80;;;26.40;73.70;;;;;;5096587;28;20503;-70
2022/07/24 11:22:50;;;;;;;8.53;3.03;;;26.40;73.60;;;;;;5096558;28;20164;-71
2022/07/24 11:25:21;;;;;;;11.20;3.10;;;26.40;74.50;;;;;;5096470;28;20048;-71
2022/07/24 11:27:51;;;;;;;7.33;2.70;;;26.30;73.10;;;;;;5097239;28;20048;-75
2022/07/24 11:30:19;;;;;;;4.07;2.50;;;26.30;73.70;;;;;;5095231;28;20090;-71
2022/07/24 11:32:45;;;;;;;6.00;2.70;;;26.30;75.50;;;;;;5096325;28;20076;-72
2022/07/24 11:35:12;;;;;;;6.60;3.23;;;26.30;76.60;;;;;;5096273;28;20177;-73
2022/07/24 11:37:39;;;;;;;4.97;3.00;;;26.40;77.00;;;;;;5095051;28;20048;-69
2022/07/24 11:40:07;;;;;;;4.93;2.80;;;26.30;77.40;;;;;;5096202;28;20130;-71
2022/07/24 11:42:34;;;;;;;5.00;2.63;;;26.30;77.50;;;;;;5094964;28;20054;-69
2022/07/24 11:45:00;;;;;;;6.23;2.90;;;26.30;77.10;;;;;;5096529;28;20448;-70
2022/07/24 11:47:29;;;;;;;5.70;2.77;;;26.20;75.90;;;;;;5095401;28;20397;-70
2022/07/24 11:50:00;;;;;;;7.37;2.60;;;26.20;77.10;;;;;;5095777;28;20565;-71
2022/07/24 11:52:39;;;;;;;6.53;2.67;;;26.30;75.50;;;;;;5094391;28;20076;-70
2022/07/24 11:55:11;;;;;;;5.47;2.63;;;26.20;76.30;;;;;;5095805;28;20044;-70
2022/07/24 11:57:38;;;;;;;7.13;3.60;;;26.20;76.90;;;;;;5096373;28;20048;-70
2022/07/24 12:00:09;;;;;;;4.73;2.57;;;26.30;77.20;;;;;;5095723;28;20102;-70
2022/07/24 12:02:35;;;;;;;5.20;2.47;;;26.30;76.50;;;;;;5096048;28;20117;-70
2022/07/24 12:05:01;;;;;;;7.57;2.87;;;26.40;75.90;;;;;;5096491;28;20512;-70
2022/07/24 12:07:29;;;;;;;7.40;2.70;;;26.30;75.40;;;;;;5095625;28;20126;-70
2022/07/24 12:10:02;;;;;;;6.27;2.33;;;26.30;74.90;;;;;;5095477;28;20052;-70
2022/07/24 12:12:33;;;;;;;7.60;2.70;;;26.20;75.00;;;;;;5095486;28;20044;-70
2022/07/24 12:15:11;;;;;;;7.13;2.70;;;26.20;75.30;;;;;;5095538;28;20055;-70
2022/07/24 12:18:03;;;;;;;6.63;2.60;;;26.20;76.50;;;;;;5096029;28;20059;-70
2022/07/24 12:20:35;;;;;;;3.90;2.30;;;26.20;76.20;;;;;;5095418;28;20040;-70
2022/07/24 12:23:06;;;;;;;8.53;2.53;;;26.20;74.90;;;;;;5095369;28;20048;-70
2022/07/24 12:25:32;;;;;;;5.20;2.60;;;26.20;75.40;;;;;;5094610;28;20040;-70
2022/07/24 12:28:10;;;;;;;6.30;2.40;;;26.20;75.00;;;;;;5095204;28;20047;-70
2022/07/24 12:30:41;;;;;;;5.77;2.40;;;26.20;75.10;;;;;;5095743;28;20062;-70
2022/07/24 12:33:08;;;;;;;5.90;2.47;;;26.20;75.50;;;;;;5095139;28;20036;-70
2022/07/24 12:35:58;;;;;;;4.90;2.47;;;26.20;76.00;;;;;;5095116;28;20090;-70
2022/07/24 12:38:35;;;;;;;8.07;3.10;;;26.40;76.60;;;;;;5095028;28;20040;-70
2022/07/24 12:41:12;;;;;;;4.37;2.20;;;26.40;74.40;;;;;;5094808;28;20113;-70
2022/07/24 12:43:57;;;;;;;5.93;2.67;;;26.40;73.00;;;;;;5095014;28;20043;-70
2022/07/24 12:46:24;;;;;;;;;;;26.40;73.20;;;;;;5095279;28;20139;-70
2022/07/24 12:48:57;;;;;;;4.73;2.70;;;26.40;72.20;;;;;;5094417;28;20375;-70
2022/07/24 12:51:23;;;;;;;5.97;2.63;;;26.30;72.70;;;;;;5095441;28;20036;-70
2022/07/24 12:53:53;;;;;;;5.07;2.80;;;26.40;73.70;;;;;;5094597;28;20052;-70
2022/07/24 12:56:19;;;;;;;5.70;2.40;;;26.40;74.30;;;;;;5093667;28;20052;-70
2022/07/24 12:58:48;;;;;;;6.33;2.70;;;26.40;73.90;;;;;;5094629;28;20048;-70
2022/07/24 13:01:14;;;;;;;7.70;3.17;;;26.30;73.00;;;;;;5094559;28;20071;-70
2022/07/24 13:03:40;;;;;;;5.67;2.63;;;26.30;73.90;;;;;;5094573;28;20067;-70
2022/07/24 13:06:06;;;;;;;5.93;2.83;;;26.30;73.50;;;;;;5095263;28;20048;-70